Ever Diamond — 3FQS8 — position and weather

sailwx.info

Track history (hours):
 
Tides and Currents Weather Stations Pressure Air Temp Water Temp Dewpoint Dewpoint Depression Visibility Wind Speed Wind Dir Waves Ship Positions

Ever Diamond

Last reported at 2018-Apr-15 19:06 UTC. Time now 2018-Apr-23 13:50 UTC.
Position N 15°26' E 072°20'.

Type: Ship (hazmat cat D). MMSI: 354893000.

Date/timePositionNaut miles runAvg speedWind from/ knotsBaromVisibWave heightAir tempDewpointWater temp
2018-Apr-15 19:06N 15°26' E 072°20'214.0
2018-Apr-15 19:00N 15°28' E 072°19'1114.2
2018-Apr-15 18:13N 15°37' E 072°13'414.3
2018-Apr-15 17:55N 15°41' E 072°11'714.4
2018-Apr-15 17:25N 15°47' E 072°07'1914.6
2018-Apr-15 16:05N 16°04' E 071°58'414.6
2018-Apr-15 15:50N 16°08' E 071°56'514.5
2018-Apr-15 15:30N 16°12' E 071°54'714.3
2018-Apr-15 15:00N 16°18' E 071°50'1014.4
2018-Apr-15 14:19N 16°27' E 071°46'414.3
2018-Apr-15 14:00N 16°31' E 071°44'714.1
2018-Apr-15 13:30N 16°37' E 071°40'814.2
2018-Apr-15 12:57N 16°44' E 071°37'4014.4
2018-Apr-15 10:12N 17°20' E 071°18'314.2
2018-Apr-15 09:59N 17°22' E 071°16'814.3
2018-Apr-15 09:25N 17°30' E 071°13'914.4
2018-Apr-15 08:48N 17°38' E 071°08'614.4
2018-Apr-15 08:21N 17°43' E 071°05'614.5
2018-Apr-15 07:55N 17°49' E 071°02'714.6
2018-Apr-15 07:27N 17°55' E 070°59'614.2
2018-Apr-15 07:00N 18°01' E 070°56'714.1
2018-Apr-15 06:30N 18°07' E 070°53'814.4
2018-Apr-15 05:57N 18°14' E 070°49'614.3
2018-Apr-15 05:30N 18°20' E 070°46'714.3
2018-Apr-15 05:00N 18°26' E 070°42'917.4
2018-Apr-15 04:29N 18°34' E 070°38'1119.6
2018-Apr-15 03:55N 18°44' E 070°33'819.7
2018-Apr-15 03:30N 18°51' E 070°29'1018.3
2018-Apr-15 02:59N 18°60' E 070°24'816.4
2018-Apr-15 02:30N 19°07' E 070°21'714.6
2018-Apr-15 02:01N 19°13' E 070°17'714.2
2018-Apr-15 01:31N 19°20' E 070°14'714.1
2018-Apr-15 01:00N 19°26' E 070°11'714.3
2018-Apr-15 00:30N 19°32' E 070°07'814.5
2018-Apr-14 23:58N 19°39' E 070°03'914.4
2018-Apr-14 23:21N 19°47' E 069°58'614.3
2018-Apr-14 22:56N 19°52' E 069°56'614.3
2018-Apr-14 22:31N 19°58' E 069°53'714.4
2018-Apr-14 22:00N 20°04' E 069°50'714.2
2018-Apr-14 21:30N 20°11' E 069°46'914.0
2018-Apr-14 20:52N 20°18' E 069°42'513.9
2018-Apr-14 20:30N 20°23' E 069°39'713.8
2018-Apr-14 20:00N 20°29' E 069°36'713.8
2018-Apr-14 19:29N 20°36' E 069°33'713.9
2018-Apr-14 19:00N 20°42' E 069°30'813.9
2018-Apr-14 18:27N 20°48' E 069°25'613.9
2018-Apr-14 18:00N 20°54' E 069°23'714.0
2018-Apr-14 17:31N 21°00' E 069°19'1214.2
2018-Apr-14 16:41N 21°10' E 069°14'314.1
2018-Apr-14 16:28N 21°13' E 069°12'714.2
2018-Apr-14 16:00N 21°19' E 069°09'714.2
2018-Apr-14 15:30N 21°26' E 069°06'714.2
2018-Apr-14 15:00N 21°32' E 069°03'713.1
2018-Apr-14 14:29N 21°38' E 068°59'78 7.6
2018-Apr-14 04:11N 22°45' E 069°42'0 0.0
2018-Apr-14 03:53N 22°45' E 069°42'0 0.0
2018-Apr-14 03:29N 22°45' E 069°42'0 0.0
2018-Apr-14 02:41N 22°45' E 069°42'0 0.0
2018-Apr-14 02:11N 22°45' E 069°42'0 0.0
2018-Apr-14 01:47N 22°45' E 069°42'0 0.0
2018-Apr-14 01:23N 22°45' E 069°42'0 0.0
2018-Apr-14 00:59N 22°45' E 069°42'0 0.0
2018-Apr-14 00:29N 22°45' E 069°42'0 0.0
2018-Apr-13 23:53N 22°45' E 069°42'0 0.0
2018-Apr-13 23:29N 22°45' E 069°42'0 0.0
2018-Apr-13 22:47N 22°45' E 069°42'0 0.0
2018-Apr-13 22:17N 22°45' E 069°42'0 0.0
2018-Apr-13 21:59N 22°45' E 069°42'0 0.0
2018-Apr-13 21:17N 22°45' E 069°42'0 0.0
2018-Apr-13 19:29N 22°45' E 069°42'42 2.6
2018-Apr-13 03:46N 22°37' E 068°58'415.0
2018-Apr-13 03:30N 22°37' E 068°54'1115.0
2018-Apr-13 02:46N 22°31' E 068°44'514.5
2018-Apr-13 02:27N 22°30' E 068°39'5014.7
2018-Apr-12 23:02N 23°01' E 067°56'515.3
2018-Apr-12 22:43N 23°04' E 067°53'415.3
2018-Apr-12 22:29N 23°06' E 067°49'4815.3
2018-Apr-12 19:21N 23°41' E 067°13'1315.5
2018-Apr-12 18:32N 23°51' E 067°04'015.3
2018-Apr-12 18:30N 23°51' E 067°04'815.4
2018-Apr-12 17:59N 23°56' E 066°58'46 1.2
2018-Apr-11 01:44N 24°42' E 066°50'2 8.2
2018-Apr-11 01:27N 24°42' E 066°48'4 6.0
2018-Apr-11 00:48N 24°42' E 066°43'2 1.0
2018-Apr-10 23:10N 24°43' E 066°42'1 3.5
2018-Apr-10 23:00N 24°43' E 066°41'2 4.7
2018-Apr-10 22:30N 24°43' E 066°38'612.9
2018-Apr-10 22:00N 24°43' E 066°31'913.5
2018-Apr-10 21:21N 24°43' E 066°22'1713.5
2018-Apr-10 20:06N 24°42' E 066°03'113.5
2018-Apr-10 20:00N 24°42' E 066°02'  
Track history (hours):
 
Tides and Currents Weather Stations Pressure Air Temp Water Temp Dewpoint Dewpoint Depression Visibility Wind Speed Wind Dir Waves Ship Positions

Ever Diamond

Last reported at 2018-Apr-15 19:06 UTC. Time now 2018-Apr-23 13:50 UTC.
Position N 15°26' E 072°20'.

Type: Ship (hazmat cat D). MMSI: 354893000.

Date/timePositionNaut miles runAvg speedWind from/ knotsBaromVisibWave heightAir tempDewpointWater temp
2018-Apr-15 19:06N 15°26' E 072°20'214.0
2018-Apr-15 19:00N 15°28' E 072°19'1114.2
2018-Apr-15 18:13N 15°37' E 072°13'414.3
2018-Apr-15 17:55N 15°41' E 072°11'714.4
2018-Apr-15 17:25N 15°47' E 072°07'1914.6
2018-Apr-15 16:05N 16°04' E 071°58'414.6
2018-Apr-15 15:50N 16°08' E 071°56'514.5
2018-Apr-15 15:30N 16°12' E 071°54'714.3
2018-Apr-15 15:00N 16°18' E 071°50'1014.4
2018-Apr-15 14:19N 16°27' E 071°46'414.3
2018-Apr-15 14:00N 16°31' E 071°44'714.1
2018-Apr-15 13:30N 16°37' E 071°40'814.2
2018-Apr-15 12:57N 16°44' E 071°37'4014.4
2018-Apr-15 10:12N 17°20' E 071°18'314.2
2018-Apr-15 09:59N 17°22' E 071°16'814.3
2018-Apr-15 09:25N 17°30' E 071°13'914.4
2018-Apr-15 08:48N 17°38' E 071°08'614.4
2018-Apr-15 08:21N 17°43' E 071°05'614.5
2018-Apr-15 07:55N 17°49' E 071°02'714.6
2018-Apr-15 07:27N 17°55' E 070°59'614.2
2018-Apr-15 07:00N 18°01' E 070°56'714.1
2018-Apr-15 06:30N 18°07' E 070°53'814.4
2018-Apr-15 05:57N 18°14' E 070°49'614.3
2018-Apr-15 05:30N 18°20' E 070°46'714.3
2018-Apr-15 05:00N 18°26' E 070°42'917.4
2018-Apr-15 04:29N 18°34' E 070°38'1119.6
2018-Apr-15 03:55N 18°44' E 070°33'819.7
2018-Apr-15 03:30N 18°51' E 070°29'1018.3
2018-Apr-15 02:59N 18°60' E 070°24'816.4
2018-Apr-15 02:30N 19°07' E 070°21'714.6
2018-Apr-15 02:01N 19°13' E 070°17'714.2
2018-Apr-15 01:31N 19°20' E 070°14'714.1
2018-Apr-15 01:00N 19°26' E 070°11'714.3
2018-Apr-15 00:30N 19°32' E 070°07'814.5
2018-Apr-14 23:58N 19°39' E 070°03'914.4
2018-Apr-14 23:21N 19°47' E 069°58'614.3
2018-Apr-14 22:56N 19°52' E 069°56'614.3
2018-Apr-14 22:31N 19°58' E 069°53'714.4
2018-Apr-14 22:00N 20°04' E 069°50'714.2
2018-Apr-14 21:30N 20°11' E 069°46'914.0
2018-Apr-14 20:52N 20°18' E 069°42'513.9
2018-Apr-14 20:30N 20°23' E 069°39'713.8
2018-Apr-14 20:00N 20°29' E 069°36'713.8
2018-Apr-14 19:29N 20°36' E 069°33'713.9
2018-Apr-14 19:00N 20°42' E 069°30'813.9
2018-Apr-14 18:27N 20°48' E 069°25'613.9
2018-Apr-14 18:00N 20°54' E 069°23'714.0
2018-Apr-14 17:31N 21°00' E 069°19'1214.2
2018-Apr-14 16:41N 21°10' E 069°14'314.1
2018-Apr-14 16:28N 21°13' E 069°12'714.2
2018-Apr-14 16:00N 21°19' E 069°09'714.2
2018-Apr-14 15:30N 21°26' E 069°06'714.2
2018-Apr-14 15:00N 21°32' E 069°03'713.1
2018-Apr-14 14:29N 21°38' E 068°59'78 7.6
2018-Apr-14 04:11N 22°45' E 069°42'0 0.0
2018-Apr-14 03:53N 22°45' E 069°42'0 0.0
2018-Apr-14 03:29N 22°45' E 069°42'0 0.0
2018-Apr-14 02:41N 22°45' E 069°42'0 0.0
2018-Apr-14 02:11N 22°45' E 069°42'0 0.0
2018-Apr-14 01:47N 22°45' E 069°42'0 0.0
2018-Apr-14 01:23N 22°45' E 069°42'0 0.0
2018-Apr-14 00:59N 22°45' E 069°42'0 0.0
2018-Apr-14 00:29N 22°45' E 069°42'0 0.0
2018-Apr-13 23:53N 22°45' E 069°42'0 0.0
2018-Apr-13 23:29N 22°45' E 069°42'0 0.0
2018-Apr-13 22:47N 22°45' E 069°42'0 0.0
2018-Apr-13 22:17N 22°45' E 069°42'0 0.0
2018-Apr-13 21:59N 22°45' E 069°42'0 0.0
2018-Apr-13 21:17N 22°45' E 069°42'0 0.0
2018-Apr-13 19:29N 22°45' E 069°42'42 2.6
2018-Apr-13 03:46N 22°37' E 068°58'415.0
2018-Apr-13 03:30N 22°37' E 068°54'1115.0
2018-Apr-13 02:46N 22°31' E 068°44'514.5
2018-Apr-13 02:27N 22°30' E 068°39'5014.7
2018-Apr-12 23:02N 23°01' E 067°56'515.3
2018-Apr-12 22:43N 23°04' E 067°53'415.3
2018-Apr-12 22:29N 23°06' E 067°49'4815.3
2018-Apr-12 19:21N 23°41' E 067°13'1315.5
2018-Apr-12 18:32N 23°51' E 067°04'015.3
2018-Apr-12 18:30N 23°51' E 067°04'815.4
2018-Apr-12 17:59N 23°56' E 066°58'46 1.2
2018-Apr-11 01:44N 24°42' E 066°50'2 8.2
2018-Apr-11 01:27N 24°42' E 066°48'4 6.0
2018-Apr-11 00:48N 24°42' E 066°43'2 1.0
2018-Apr-10 23:10N 24°43' E 066°42'1 3.5
2018-Apr-10 23:00N 24°43' E 066°41'2 4.7
2018-Apr-10 22:30N 24°43' E 066°38'612.9
2018-Apr-10 22:00N 24°43' E 066°31'913.5
2018-Apr-10 21:21N 24°43' E 066°22'1713.5
2018-Apr-10 20:06N 24°42' E 066°03'113.5
2018-Apr-10 20:00N 24°42' E 066°02'  

Dump ship's entire track history